createdAt,value
2022-10-30T00:00:31.094Z,100.00
2022-10-30T00:02:35.504Z,98.76
2022-10-30T00:04:38.547Z,98.18
2022-10-30T00:06:41.720Z,99.93
2022-10-30T00:08:44.787Z,99.93
2022-10-30T00:10:50.147Z,100.00
2022-10-30T00:12:53.159Z,98.82
2022-10-30T00:14:56.284Z,98.75
2022-10-30T00:16:59.325Z,98.85
2022-10-30T00:19:03.744Z,98.82
2022-10-30T00:21:08.643Z,98.58
2022-10-30T00:23:11.725Z,98.91
2022-10-30T00:25:14.794Z,99.26
2022-10-30T00:27:17.833Z,98.87
2022-10-30T00:29:23.486Z,98.88
2022-10-30T00:31:26.481Z,99.47
2022-10-30T00:33:29.598Z,98.76
2022-10-30T00:35:34.883Z,98.00
2022-10-30T00:37:38.844Z,98.17
2022-10-30T00:39:44.640Z,99.38
2022-10-30T00:41:47.688Z,98.47
2022-10-30T00:43:50.898Z,98.15
2022-10-30T00:45:54.891Z,98.69
2022-10-30T00:48:00.973Z,97.89
2022-10-30T00:50:07.736Z,98.14
2022-10-30T00:52:12.468Z,97.84
2022-10-30T00:54:17.575Z,99.43
2022-10-30T00:56:22.272Z,99.02
2022-10-30T00:58:30.461Z,98.58
2022-10-30T01:00:33.518Z,99.65
2022-10-30T01:02:36.592Z,99.75
2022-10-30T01:04:42.564Z,99.04
2022-10-30T01:06:48.684Z,98.71
2022-10-30T01:08:58.818Z,98.70
2022-10-30T01:11:04.360Z,99.04
2022-10-30T01:13:07.889Z,98.91
2022-10-30T01:15:11.395Z,98.54
2022-10-30T01:17:28.755Z,99.74
2022-10-30T01:19:36.960Z,99.02
2022-10-30T01:21:50.399Z,99.52
2022-10-30T01:24:09.349Z,100.00
2022-10-30T01:26:23.980Z,99.27
2022-10-30T01:28:36.145Z,98.94
2022-10-30T01:30:51.513Z,99.20
2022-10-30T01:33:07.776Z,100.00
2022-10-30T01:35:16.561Z,99.61
2022-10-30T01:37:23.981Z,99.58
2022-10-30T01:39:30.156Z,99.20
2022-10-30T01:41:33.220Z,99.92
2022-10-30T01:43:37.877Z,100.00
2022-10-30T01:46:10.993Z,100.00
2022-10-30T01:48:39.321Z,98.93
2022-10-30T01:50:48.741Z,97.87
2022-10-30T01:52:58.956Z,99.33
2022-10-30T01:55:09.404Z,98.43
2022-10-30T01:57:18.608Z,99.76
2022-10-30T01:59:27.437Z,100.00
2022-10-30T02:01:34.981Z,99.17
2022-10-30T02:03:39.462Z,99.69
2022-10-30T02:06:02.723Z,99.78
2022-10-30T02:08:07.339Z,100.00
2022-10-30T02:10:15.977Z,100.00
2022-10-30T02:12:19.757Z,100.00
2022-10-30T02:14:26.929Z,99.07
2022-10-30T02:16:30.310Z,99.57
2022-10-30T02:18:33.756Z,99.12
2022-10-30T02:20:39.824Z,99.04
2022-10-30T02:22:43.821Z,99.37
2022-10-30T02:24:47.351Z,99.40
2022-10-30T02:26:50.959Z,99.62
2022-10-30T02:28:54.504Z,100.00
2022-10-30T02:30:58.193Z,100.00
2022-10-30T02:33:02.139Z,99.38
2022-10-30T02:35:06.938Z,99.68
2022-10-30T02:37:12.216Z,99.28
2022-10-30T02:39:16.490Z,98.95
2022-10-30T02:41:20.020Z,99.32
2022-10-30T02:43:23.533Z,99.81
2022-10-30T02:45:27.155Z,100.00
2022-10-30T02:47:30.656Z,100.00
2022-10-30T02:49:34.179Z,100.00
2022-10-30T02:51:38.150Z,99.58
2022-10-30T02:53:43.445Z,100.00
2022-10-30T02:55:48.136Z,99.42
2022-10-30T02:57:51.471Z,99.45
2022-10-30T02:59:54.965Z,99.16
2022-10-30T03:01:58.430Z,99.64
2022-10-30T03:04:02.100Z,98.95
2022-10-30T03:06:07.329Z,100.00
2022-10-30T03:08:11.590Z,99.70
2022-10-30T03:10:16.636Z,99.38
2022-10-30T03:12:20.025Z,100.00
2022-10-30T03:14:23.614Z,100.00
2022-10-30T03:16:30.351Z,100.00
2022-10-30T03:18:34.398Z,99.91
2022-10-30T03:20:44.019Z,99.69
2022-10-30T03:22:48.211Z,100.00
2022-10-30T03:24:51.731Z,99.45
2022-10-30T03:26:56.733Z,99.33
2022-10-30T03:29:00.945Z,100.00
2022-10-30T03:31:06.811Z,100.00
2022-10-30T03:33:10.511Z,99.94
2022-10-30T03:35:14.003Z,100.00
2022-10-30T03:37:17.791Z,100.00
2022-10-30T03:39:21.187Z,100.00
2022-10-30T03:41:24.879Z,100.00
2022-10-30T03:43:30.239Z,99.25
2022-10-30T03:45:34.464Z,99.92
2022-10-30T03:47:41.250Z,100.00
2022-10-30T03:49:45.815Z,99.51
2022-10-30T03:51:53.881Z,99.53
2022-10-30T03:53:59.041Z,99.30
2022-10-30T03:56:05.348Z,98.94
2022-10-30T03:58:19.038Z,98.41
2022-10-30T04:00:24.025Z,98.98
2022-10-30T04:02:33.224Z,98.47
2022-10-30T04:04:36.329Z,99.07
2022-10-30T04:06:39.411Z,98.22
2022-10-30T04:08:43.623Z,98.60
2022-10-30T04:10:48.075Z,97.72
2022-10-30T04:12:51.168Z,97.82
2022-10-30T04:14:54.522Z,98.53
2022-10-30T04:16:58.927Z,98.43
2022-10-30T04:19:02.099Z,98.57
2022-10-30T04:21:05.522Z,98.90
2022-10-30T04:23:14.481Z,98.75
2022-10-30T04:25:17.985Z,98.82
2022-10-30T04:27:21.529Z,98.69
2022-10-30T04:29:25.610Z,98.63
2022-10-30T04:31:29.098Z,99.20
2022-10-30T04:33:33.503Z,99.21
2022-10-30T04:35:38.349Z,99.45
2022-10-30T04:37:53.359Z,99.29
2022-10-30T04:39:56.372Z,98.58
2022-10-30T04:42:02.653Z,98.43
2022-10-30T04:44:09.832Z,99.53
2022-10-30T04:46:12.798Z,99.37
2022-10-30T04:48:16.869Z,99.18
2022-10-30T04:50:21.661Z,99.35
2022-10-30T04:52:25.120Z,99.45
2022-10-30T04:54:29.057Z,99.56
2022-10-30T04:56:32.939Z,99.18
2022-10-30T04:58:36.052Z,98.96
2022-10-30T05:00:41.673Z,98.88
2022-10-30T05:02:49.840Z,98.92
2022-10-30T05:04:52.828Z,98.97
2022-10-30T05:06:57.216Z,98.67
2022-10-30T05:09:00.277Z,98.75
2022-10-30T05:11:10.824Z,98.69
2022-10-30T05:13:13.891Z,99.25
2022-10-30T05:15:18.452Z,98.79
2022-10-30T05:17:21.567Z,98.25
2022-10-30T05:19:26.820Z,98.79
2022-10-30T05:21:32.959Z,98.80
2022-10-30T05:23:37.307Z,98.86
2022-10-30T05:25:41.857Z,98.59
2022-10-30T05:27:47.690Z,98.58
2022-10-30T05:29:50.798Z,99.16
2022-10-30T05:31:53.971Z,98.24
2022-10-30T05:34:29.338Z,98.25
2022-10-30T05:36:32.596Z,98.36
2022-10-30T05:38:37.124Z,98.35
2022-10-30T05:40:43.380Z,97.91
2022-10-30T05:42:47.104Z,97.22
2022-10-30T05:45:05.790Z,97.58
2022-10-30T05:47:12.176Z,98.41
2022-10-30T05:49:18.712Z,98.40
2022-10-30T05:51:22.559Z,98.33
2022-10-30T05:53:29.675Z,98.51
2022-10-30T05:55:36.509Z,98.58
2022-10-30T05:57:46.666Z,97.56
2022-10-30T05:59:49.933Z,97.52
2022-10-30T06:01:53.079Z,97.57
2022-10-30T06:03:56.193Z,98.19
2022-10-30T06:05:59.234Z,97.97
2022-10-30T06:08:03.251Z,97.39
2022-10-30T06:10:07.171Z,97.75
2022-10-30T06:12:30.504Z,97.84
2022-10-30T06:14:52.004Z,98.17
2022-10-30T06:16:55.050Z,98.26
2022-10-30T06:19:15.493Z,98.16
2022-10-30T06:21:21.742Z,97.74
2022-10-30T06:23:32.611Z,98.12
2022-10-30T06:25:42.374Z,98.20
2022-10-30T06:27:51.482Z,97.74
2022-10-30T06:29:54.926Z,97.48
2022-10-30T06:31:59.802Z,97.87
2022-10-30T06:34:05.596Z,97.71
2022-10-30T06:36:10.763Z,97.36
2022-10-30T06:38:14.948Z,98.34
2022-10-30T06:40:18.676Z,98.33
2022-10-30T06:42:51.895Z,98.95
2022-10-30T06:45:18.487Z,98.74
2022-10-30T06:47:21.690Z,98.26
2022-10-30T06:49:24.655Z,99.01
2022-10-30T06:51:28.659Z,98.62
2022-10-30T06:53:31.954Z,98.85
2022-10-30T06:55:58.981Z,98.31
2022-10-30T06:58:22.161Z,98.44
2022-10-30T07:00:31.660Z,97.93
2022-10-30T07:03:10.020Z,98.19
2022-10-30T07:05:13.174Z,97.33
2022-10-30T07:07:16.807Z,97.20
2022-10-30T07:09:19.820Z,96.53
2022-10-30T07:11:23.949Z,96.19
2022-10-30T07:13:54.895Z,94.39
2022-10-30T07:16:06.584Z,94.83
2022-10-30T07:18:16.788Z,94.93
2022-10-30T07:20:20.157Z,95.94
2022-10-30T07:22:23.409Z,95.31
2022-10-30T07:24:29.430Z,93.54
2022-10-30T07:26:50.951Z,92.69
2022-10-30T07:29:18.290Z,93.89
2022-10-30T07:31:35.197Z,92.16
2022-10-30T07:33:45.874Z,94.12
2022-10-30T07:36:08.849Z,93.64
2022-10-30T07:38:38.306Z,91.81
2022-10-30T07:40:56.041Z,91.26
2022-10-30T07:43:22.123Z,92.07
2022-10-30T07:45:40.345Z,91.26
2022-10-30T07:48:07.502Z,91.21
2022-10-30T07:50:17.795Z,91.36
2022-10-30T07:52:20.861Z,90.04
2022-10-30T07:54:25.432Z,89.52
2022-10-30T07:56:29.123Z,89.23
2022-10-30T07:58:32.123Z,89.46
2022-10-30T08:01:12.181Z,89.77
2022-10-30T08:03:15.711Z,90.06
2022-10-30T08:05:29.993Z,88.61
2022-10-30T08:07:47.434Z,88.09
2022-10-30T08:09:51.275Z,89.87
2022-10-30T08:11:54.479Z,90.00
2022-10-30T08:13:57.606Z,89.85
2022-10-30T08:16:00.560Z,88.56
2022-10-30T08:18:05.280Z,88.68
2022-10-30T08:20:11.028Z,89.41
2022-10-30T08:22:14.280Z,88.23
2022-10-30T08:24:17.912Z,87.15
2022-10-30T08:26:23.227Z,86.16
2022-10-30T08:28:31.614Z,88.26
2022-10-30T08:30:38.028Z,86.48
2022-10-30T08:32:42.296Z,86.75
2022-10-30T08:35:06.417Z,87.24
2022-10-30T08:37:09.672Z,86.71
2022-10-30T08:39:12.747Z,87.85
2022-10-30T08:41:23.486Z,86.95
2022-10-30T08:43:28.538Z,86.87
2022-10-30T08:45:31.674Z,87.30
2022-10-30T08:47:58.194Z,87.20
2022-10-30T08:50:05.501Z,86.88
2022-10-30T08:52:09.638Z,86.65
2022-10-30T08:54:12.853Z,85.01
2022-10-30T08:56:16.056Z,85.08
2022-10-30T08:58:27.414Z,84.24
2022-10-30T09:00:31.164Z,82.93
2022-10-30T09:03:06.411Z,83.36
2022-10-30T09:05:16.854Z,84.54
2022-10-30T09:07:37.910Z,84.70
2022-10-30T09:10:10.445Z,85.30
2022-10-30T09:12:14.220Z,85.65
2022-10-30T09:14:20.557Z,83.12
2022-10-30T09:16:23.684Z,82.91
2022-10-30T09:18:26.890Z,84.05
2022-10-30T09:20:32.353Z,83.84
2022-10-30T09:22:35.668Z,83.39
2022-10-30T09:24:40.027Z,84.03
2022-10-30T09:27:01.310Z,83.28
2022-10-30T09:29:04.523Z,81.85
2022-10-30T09:31:26.428Z,83.18
2022-10-30T09:33:30.349Z,83.34
2022-10-30T09:35:58.062Z,83.32
2022-10-30T09:38:01.929Z,84.14
2022-10-30T09:40:06.959Z,82.58
2022-10-30T09:42:25.588Z,81.48
2022-10-30T09:44:45.810Z,81.40
2022-10-30T09:47:04.123Z,80.60
2022-10-30T09:49:18.393Z,82.06
2022-10-30T09:51:42.272Z,82.86
2022-10-30T09:53:56.605Z,80.26
2022-10-30T09:56:09.931Z,79.69
2022-10-30T09:58:23.648Z,81.11
2022-10-30T10:00:32.198Z,80.05
2022-10-30T10:02:38.811Z,80.02
2022-10-30T10:04:44.683Z,78.71
2022-10-30T10:06:54.553Z,79.08
2022-10-30T10:09:18.271Z,79.36
2022-10-30T10:11:54.995Z,79.50
2022-10-30T10:14:00.237Z,78.39
2022-10-30T10:16:09.128Z,79.29
2022-10-30T10:18:26.505Z,81.06
2022-10-30T10:20:34.347Z,80.58
2022-10-30T10:22:41.482Z,80.41
2022-10-30T10:24:47.601Z,80.43
2022-10-30T10:26:51.961Z,79.99
2022-10-30T10:29:05.549Z,79.97
2022-10-30T10:31:17.190Z,78.87
2022-10-30T10:33:44.419Z,79.08
2022-10-30T10:35:54.770Z,79.80
2022-10-30T10:38:10.133Z,79.41
2022-10-30T10:40:26.401Z,78.52
2022-10-30T10:42:37.394Z,78.61
2022-10-30T10:44:50.232Z,78.01
2022-10-30T10:47:07.518Z,77.92
2022-10-30T10:49:21.873Z,77.90
2022-10-30T10:51:27.384Z,78.09
2022-10-30T10:53:36.553Z,77.42
2022-10-30T10:55:42.465Z,78.51
2022-10-30T10:57:46.450Z,78.15
2022-10-30T10:59:58.122Z,77.57
2022-10-30T11:02:21.614Z,77.87
2022-10-30T11:04:30.288Z,76.78
2022-10-30T11:06:38.339Z,76.52
2022-10-30T11:08:42.754Z,76.65
2022-10-30T11:10:46.863Z,75.63
2022-10-30T11:12:50.326Z,74.20
2022-10-30T11:14:53.749Z,73.25
2022-10-30T11:17:04.588Z,72.53
2022-10-30T11:19:10.069Z,72.59
2022-10-30T11:21:18.763Z,73.33
2022-10-30T11:23:39.878Z,71.69
2022-10-30T11:25:44.362Z,71.92
2022-10-30T11:27:49.321Z,71.61
2022-10-30T11:29:53.937Z,71.93
2022-10-30T11:32:04.606Z,72.03
2022-10-30T11:34:26.419Z,72.23
2022-10-30T11:36:29.512Z,71.82
2022-10-30T11:38:32.536Z,70.62
2022-10-30T11:40:35.624Z,69.62
2022-10-30T11:42:41.037Z,68.59
2022-10-30T11:44:45.408Z,69.48
2022-10-30T11:46:48.419Z,69.83
2022-10-30T11:48:55.150Z,69.26
2022-10-30T11:51:00.603Z,69.10
2022-10-30T11:53:11.625Z,69.58
2022-10-30T11:55:18.134Z,69.57
2022-10-30T11:57:24.316Z,71.56
2022-10-30T11:59:28.693Z,71.82
2022-10-30T12:01:33.464Z,72.85
2022-10-30T12:03:38.184Z,73.24
2022-10-30T12:05:44.921Z,72.15
2022-10-30T12:07:50.315Z,72.91
2022-10-30T12:09:53.310Z,72.83
2022-10-30T12:11:56.267Z,71.70
2022-10-30T12:13:59.759Z,71.11
2022-10-30T12:16:15.236Z,69.68
2022-10-30T12:18:21.286Z,70.00
2022-10-30T12:20:24.278Z,70.26
2022-10-30T12:22:31.701Z,70.29
2022-10-30T12:24:37.149Z,70.96
2022-10-30T12:26:40.922Z,70.94
2022-10-30T12:28:51.785Z,70.22
2022-10-30T12:30:57.734Z,70.51
2022-10-30T12:33:05.596Z,70.84
2022-10-30T12:35:18.483Z,71.50
2022-10-30T12:37:26.065Z,72.99
2022-10-30T12:39:33.852Z,71.56
2022-10-30T12:41:43.523Z,71.47
2022-10-30T12:43:49.902Z,71.75
2022-10-30T12:45:58.528Z,72.82
2022-10-30T12:48:05.647Z,72.06
2022-10-30T12:50:18.391Z,71.94
2022-10-30T12:52:25.666Z,71.14
2022-10-30T12:54:33.531Z,70.32
2022-10-30T12:56:39.644Z,70.47
2022-10-30T12:58:45.610Z,71.12
2022-10-30T13:00:54.771Z,71.16
2022-10-30T13:03:01.188Z,70.73
2022-10-30T13:05:23.711Z,70.85
2022-10-30T13:07:31.435Z,71.42
2022-10-30T13:09:39.452Z,71.95
2022-10-30T13:11:47.154Z,72.62
2022-10-30T13:13:53.928Z,72.72
2022-10-30T13:15:58.759Z,72.11
2022-10-30T13:18:13.309Z,72.40
2022-10-30T13:20:19.454Z,73.25
2022-10-30T13:22:26.333Z,73.54
2022-10-30T13:24:40.083Z,74.24
2022-10-30T13:26:47.238Z,73.83
2022-10-30T13:28:55.511Z,75.23
2022-10-30T13:31:02.744Z,75.75
2022-10-30T13:33:12.359Z,75.83
2022-10-30T13:35:27.547Z,75.50
2022-10-30T13:37:36.757Z,74.99
2022-10-30T13:39:43.919Z,74.99
2022-10-30T13:42:01.493Z,76.16
2022-10-30T13:44:12.806Z,75.47
2022-10-30T13:46:35.101Z,74.77
2022-10-30T13:48:53.740Z,75.02
2022-10-30T13:51:13.821Z,75.28
2022-10-30T13:53:19.689Z,76.51
2022-10-30T13:55:25.697Z,76.82
2022-10-30T13:57:33.703Z,76.91
2022-10-30T13:59:53.388Z,78.16
2022-10-30T14:02:02.097Z,78.60
2022-10-30T14:04:11.116Z,79.23
2022-10-30T14:06:22.465Z,79.05
2022-10-30T14:08:35.333Z,78.52
2022-10-30T14:10:45.298Z,78.81
2022-10-30T14:12:53.396Z,78.23
2022-10-30T14:14:56.436Z,78.57
2022-10-30T14:17:12.159Z,78.98
2022-10-30T14:19:15.947Z,80.06
2022-10-30T14:21:51.535Z,79.43
2022-10-30T14:24:05.421Z,79.92
2022-10-30T14:26:16.214Z,79.09
2022-10-30T14:28:20.526Z,79.66
2022-10-30T14:30:23.770Z,80.21
2022-10-30T14:32:38.214Z,80.76
2022-10-30T14:34:42.499Z,81.01
2022-10-30T14:36:51.914Z,80.60
2022-10-30T14:39:02.306Z,80.15
2022-10-30T14:41:36.559Z,80.02
2022-10-30T14:43:46.508Z,79.97
2022-10-30T14:45:51.802Z,80.96
2022-10-30T14:47:58.684Z,81.20
2022-10-30T14:50:03.677Z,80.42
2022-10-30T14:52:16.966Z,80.66
2022-10-30T14:54:26.280Z,80.89
2022-10-30T14:56:36.410Z,81.47
2022-10-30T14:58:40.306Z,81.56
2022-10-30T15:00:45.871Z,81.25
2022-10-30T15:02:52.958Z,82.12
2022-10-30T15:05:12.745Z,82.04
2022-10-30T15:07:22.312Z,83.59
2022-10-30T15:09:41.666Z,83.26
2022-10-30T15:12:21.261Z,83.46
2022-10-30T15:14:40.556Z,83.34
2022-10-30T15:16:52.495Z,82.95
2022-10-30T15:18:59.591Z,84.11
2022-10-30T15:21:05.792Z,84.30
2022-10-30T15:23:11.507Z,85.23
2022-10-30T15:25:19.968Z,86.55
2022-10-30T15:27:26.679Z,86.73
2022-10-30T15:29:33.327Z,87.23
2022-10-30T15:31:36.329Z,87.69
2022-10-30T15:33:39.867Z,87.62
2022-10-30T15:35:48.600Z,88.06
2022-10-30T15:38:02.040Z,87.70
2022-10-30T15:40:19.974Z,87.83
2022-10-30T15:42:23.368Z,87.72
2022-10-30T15:44:28.684Z,88.25
2022-10-30T15:46:32.664Z,88.65
2022-10-30T15:48:39.421Z,88.83
2022-10-30T15:50:46.040Z,88.89
2022-10-30T15:52:49.456Z,89.18
2022-10-30T15:54:55.946Z,88.95
2022-10-30T15:57:42.679Z,89.23
2022-10-30T15:59:28.475Z,89.24
2022-10-30T16:01:39.051Z,89.60
2022-10-30T16:03:45.854Z,89.65
2022-10-30T16:05:51.549Z,90.20
2022-10-30T16:07:56.422Z,89.76
2022-10-30T16:10:01.332Z,90.61
2022-10-30T16:12:11.823Z,90.28
2022-10-30T16:14:22.670Z,90.30
2022-10-30T16:16:27.769Z,91.22
2022-10-30T16:18:33.124Z,90.82
2022-10-30T16:20:36.836Z,91.96
2022-10-30T16:22:41.067Z,90.96
2022-10-30T16:24:44.239Z,92.28
2022-10-30T16:26:47.245Z,90.59
2022-10-30T16:28:52.029Z,91.16
2022-10-30T16:30:56.040Z,91.18
2022-10-30T16:33:00.145Z,91.42
2022-10-30T16:35:04.814Z,91.70
2022-10-30T16:37:18.126Z,91.79
2022-10-30T16:39:21.911Z,91.85
2022-10-30T16:41:27.184Z,92.80
2022-10-30T16:43:31.786Z,92.03
2022-10-30T16:45:49.673Z,92.17
2022-10-30T16:47:54.965Z,92.04
2022-10-30T16:49:59.157Z,92.75
2022-10-30T16:52:05.891Z,92.22
2022-10-30T16:54:22.914Z,92.11
2022-10-30T16:56:30.545Z,92.54
2022-10-30T16:58:33.598Z,94.03
2022-10-30T17:00:37.105Z,94.08
2022-10-30T17:02:45.459Z,94.22
2022-10-30T17:04:53.827Z,93.04
2022-10-30T17:07:13.741Z,94.27
2022-10-30T17:09:22.735Z,93.16
2022-10-30T17:11:36.327Z,94.54
2022-10-30T17:13:42.860Z,94.32
2022-10-30T17:15:46.942Z,94.36
2022-10-30T17:18:10.999Z,92.65
2022-10-30T17:20:29.864Z,93.13
2022-10-30T17:22:34.484Z,93.96
2022-10-30T17:24:38.785Z,94.12
2022-10-30T17:26:42.540Z,92.78
2022-10-30T17:28:46.686Z,93.58
2022-10-30T17:30:49.897Z,93.33
2022-10-30T17:32:55.484Z,93.97
2022-10-30T17:35:02.256Z,93.56
2022-10-30T17:37:05.617Z,93.87
2022-10-30T17:39:09.378Z,94.60
2022-10-30T17:41:16.768Z,94.18
2022-10-30T17:43:24.913Z,93.35
2022-10-30T17:45:28.697Z,93.73
2022-10-30T17:47:31.791Z,94.73
2022-10-30T17:49:38.811Z,95.39
2022-10-30T17:51:41.978Z,95.05
2022-10-30T17:53:45.602Z,95.66
2022-10-30T17:55:51.799Z,95.27
2022-10-30T17:58:00.247Z,95.82
2022-10-30T18:00:03.773Z,96.22
2022-10-30T18:02:18.427Z,96.15
2022-10-30T18:04:21.773Z,95.00
2022-10-30T18:06:28.951Z,95.77
2022-10-30T18:08:33.941Z,95.56
2022-10-30T18:10:37.371Z,95.54
2022-10-30T18:12:41.706Z,95.24
2022-10-30T18:14:45.791Z,95.81
2022-10-30T18:16:54.503Z,95.68
2022-10-30T18:18:58.860Z,95.61
2022-10-30T18:21:02.316Z,95.11
2022-10-30T18:23:31.433Z,95.67
2022-10-30T18:25:35.869Z,95.78
2022-10-30T18:27:38.876Z,95.98
2022-10-30T18:29:42.211Z,95.69
2022-10-30T18:31:45.471Z,95.67
2022-10-30T18:33:48.992Z,95.67
2022-10-30T18:35:52.321Z,96.97
2022-10-30T18:37:55.553Z,95.80
2022-10-30T18:40:00.179Z,96.32
2022-10-30T18:42:03.867Z,96.31
2022-10-30T18:44:07.136Z,95.55
2022-10-30T18:46:10.589Z,95.11
2022-10-30T18:48:13.785Z,95.75
2022-10-30T18:50:17.393Z,95.37
2022-10-30T18:52:20.371Z,94.71
2022-10-30T18:54:23.850Z,95.23
2022-10-30T18:56:30.503Z,94.67
2022-10-30T18:58:33.837Z,94.57
2022-10-30T19:00:58.200Z,94.18
2022-10-30T19:03:02.986Z,95.00
2022-10-30T19:05:21.396Z,94.93
2022-10-30T19:07:24.508Z,96.11
2022-10-30T19:09:28.751Z,95.49
2022-10-30T19:11:33.705Z,95.58
2022-10-30T19:13:37.283Z,96.04
2022-10-30T19:15:42.377Z,96.77
2022-10-30T19:17:46.407Z,97.67
2022-10-30T19:19:49.625Z,97.56
2022-10-30T19:21:52.972Z,97.19
2022-10-30T19:23:56.390Z,96.16
2022-10-30T19:25:59.799Z,96.68
2022-10-30T19:28:05.261Z,96.75
2022-10-30T19:30:09.226Z,96.20
2022-10-30T19:32:12.317Z,96.48
2022-10-30T19:34:15.399Z,96.02
2022-10-30T19:36:30.962Z,96.20
2022-10-30T19:38:34.511Z,97.01
2022-10-30T19:40:38.689Z,97.07
2022-10-30T19:42:41.790Z,95.88
2022-10-30T19:44:46.593Z,96.25
2022-10-30T19:46:49.701Z,95.53
2022-10-30T19:48:58.298Z,96.77
2022-10-30T19:51:04.049Z,96.77
2022-10-30T19:53:08.853Z,95.95
2022-10-30T19:55:12.075Z,96.25
2022-10-30T19:57:15.656Z,96.62
2022-10-30T19:59:19.102Z,96.38
2022-10-30T20:01:24.159Z,96.79
2022-10-30T20:03:27.545Z,96.69
2022-10-30T20:05:36.664Z,95.93
2022-10-30T20:07:40.017Z,95.89
2022-10-30T20:09:42.957Z,96.47
2022-10-30T20:11:47.216Z,96.47
2022-10-30T20:13:52.177Z,97.00
2022-10-30T20:16:00.455Z,97.54
2022-10-30T20:18:13.121Z,96.34
2022-10-30T20:20:18.935Z,96.00
2022-10-30T20:22:27.162Z,95.91
2022-10-30T20:24:31.813Z,94.66
2022-10-30T20:26:38.497Z,94.13
2022-10-30T20:28:43.217Z,94.99
2022-10-30T20:30:46.542Z,92.75
2022-10-30T20:32:52.745Z,94.17
2022-10-30T20:34:57.497Z,94.52
2022-10-30T20:37:01.218Z,93.29
2022-10-30T20:39:05.721Z,94.34
2022-10-30T20:41:20.906Z,95.68
2022-10-30T20:43:28.476Z,94.41
2022-10-30T20:45:31.706Z,95.29
2022-10-30T20:47:34.883Z,94.54
2022-10-30T20:49:38.123Z,95.48
2022-10-30T20:51:42.656Z,97.18
2022-10-30T20:53:45.776Z,95.32
2022-10-30T20:55:49.342Z,95.47
2022-10-30T20:57:52.649Z,95.82
2022-10-30T20:59:56.446Z,97.47
2022-10-30T21:01:59.714Z,95.76
2022-10-30T21:04:03.287Z,95.36
2022-10-30T21:06:09.641Z,96.30
2022-10-30T21:08:14.946Z,97.22
2022-10-30T21:10:18.245Z,97.23
2022-10-30T21:12:21.597Z,96.99
2022-10-30T21:14:24.822Z,96.05
2022-10-30T21:16:28.033Z,96.07
2022-10-30T21:18:31.683Z,96.01
2022-10-30T21:20:35.168Z,96.16
2022-10-30T21:22:38.440Z,96.61
2022-10-30T21:24:43.163Z,96.66
2022-10-30T21:26:46.378Z,96.83
2022-10-30T21:28:49.496Z,95.91
2022-10-30T21:30:52.902Z,96.84
2022-10-30T21:32:56.114Z,96.41
2022-10-30T21:34:59.235Z,97.62
2022-10-30T21:37:02.515Z,97.79
2022-10-30T21:39:05.623Z,99.15
2022-10-30T21:41:10.320Z,99.37
2022-10-30T21:43:16.707Z,99.14
2022-10-30T21:45:20.169Z,99.59
2022-10-30T21:47:23.519Z,99.76
2022-10-30T21:49:27.166Z,100.00
2022-10-30T21:51:32.653Z,99.94
2022-10-30T21:53:35.813Z,99.15
2022-10-30T21:55:40.801Z,97.75
2022-10-30T21:57:45.375Z,98.13
2022-10-30T21:59:48.569Z,98.01
2022-10-30T22:01:54.955Z,98.54
2022-10-30T22:04:00.259Z,97.61
2022-10-30T22:06:07.837Z,96.82
2022-10-30T22:08:11.009Z,96.61
2022-10-30T22:10:14.526Z,97.07
2022-10-30T22:12:17.847Z,97.15
2022-10-30T22:14:22.466Z,96.94
2022-10-30T22:16:29.546Z,97.90
2022-10-30T22:18:32.973Z,96.80
2022-10-30T22:20:36.648Z,97.05
2022-10-30T22:22:40.699Z,97.44
2022-10-30T22:24:43.756Z,97.65
2022-10-30T22:26:47.674Z,97.17
2022-10-30T22:28:53.655Z,97.93
2022-10-30T22:31:04.533Z,97.58
2022-10-30T22:33:11.950Z,97.91
2022-10-30T22:35:15.337Z,98.65
2022-10-30T22:37:18.604Z,97.05
2022-10-30T22:39:24.707Z,97.47
2022-10-30T22:41:31.295Z,97.11
2022-10-30T22:43:37.784Z,97.34
2022-10-30T22:45:40.813Z,96.49
2022-10-30T22:47:45.919Z,96.29
2022-10-30T22:49:49.254Z,95.77
2022-10-30T22:51:55.806Z,96.40
2022-10-30T22:54:01.598Z,96.40
2022-10-30T22:56:13.592Z,96.54
2022-10-30T23:00:28.563Z,96.90
2022-10-30T23:02:32.383Z,96.55
2022-10-30T23:04:37.453Z,96.14
2022-10-30T23:06:40.717Z,96.23
2022-10-30T23:08:44.197Z,96.31
2022-10-30T23:10:52.999Z,96.72
2022-10-30T23:12:57.655Z,96.64
2022-10-30T23:15:01.063Z,96.50
2022-10-30T23:17:04.542Z,96.45
2022-10-30T23:19:07.766Z,96.65
2022-10-30T23:21:14.732Z,96.38
2022-10-30T23:23:17.975Z,96.09
2022-10-30T23:25:21.353Z,95.81
2022-10-30T23:27:24.651Z,95.86
2022-10-30T23:29:27.819Z,96.86
2022-10-30T23:31:33.605Z,96.33
2022-10-30T23:33:36.839Z,96.67
2022-10-30T23:35:40.714Z,96.57
2022-10-30T23:37:45.466Z,96.73
2022-10-30T23:39:48.673Z,96.50
2022-10-30T23:41:51.758Z,97.50
2022-10-30T23:43:56.598Z,96.63
2022-10-30T23:45:59.743Z,95.80
2022-10-30T23:48:02.872Z,97.05
2022-10-30T23:50:06.979Z,95.98
2022-10-30T23:52:10.240Z,95.97
2022-10-30T23:54:14.775Z,95.81
2022-10-30T23:56:18.322Z,96.54
2022-10-30T23:58:21.828Z,95.96
